KMTW/MTW METAR and TAF weather

Enter ICAO airport designator
Station Type Date Time Source
KMTW METAR 2019/10/21 02:22 UTC NOAA

KMTW 210222Z AUTO 15004KT 1/4SM FG OVC002 07/06 A2997 RMK AO2 RAE09 P0000


Station Type Date Time Source
KMTW Decoded METAR 2019/10/21 02:22 UTC NOAA

Manitowoc, Manitowoc County Airport, WI, United States (KMTW) 44-08N 087-41W
Oct 20, 2019 - 10:22 PM EDT / 2019.10.21 0222 UTC
Wind: from the SSE (150 degrees) at 5 MPH (4 KT):0
Visibility: 1/4 mile(s):0
Sky conditions: overcast
Weather: fog
Precipitation last hour: A trace
Temperature: 44 F (7 C)
Dew Point: 42 F (6 C)
Relative Humidity: 93%
Pressure (altimeter): 29.97 in. Hg (1014 hPa)
ob: KMTW 210222Z AUTO 15004KT 1/4SM FG OVC002 07/06 A2997 RMK AO2 RAE09 P0000
cycle: 2

Station Type Date Time Source
KMTW TAF 2019/10/20 22:59 UTC NOAA

TAF
AMD KMTW 202159Z 2022/2118 10008KT 1 1/2SM BR SCT003
TEMPO 2022/2102 1/2SM FG OVC002
FM210700 11010KT P6SM BKN045 OVC150
FM211200 12015G22KT P6SM BKN025 OVC090
FM211600 13018G28KT 6SM -SHRA OVC025

Example: see airport list